sensor_id;sensor_type;location;lat;lon;timestamp;P1;durP1;ratioP1;P2;durP2;ratioP2
72284;SDS011;60220;53.552;10.092;2023-10-31T00:01:43;6.97;;;3.47;;
72284;SDS011;60220;53.552;10.092;2023-10-31T00:04:09;6.25;;;3.60;;
72284;SDS011;60220;53.552;10.092;2023-10-31T00:06:36;5.18;;;3.20;;
72284;SDS011;60220;53.552;10.092;2023-10-31T00:09:05;9.80;;;3.40;;
72284;SDS011;60220;53.552;10.092;2023-10-31T00:11:32;7.72;;;2.70;;
72284;SDS011;60220;53.552;10.092;2023-10-31T00:14:01;6.07;;;2.75;;
72284;SDS011;60220;53.552;10.092;2023-10-31T00:16:27;5.85;;;3.67;;
72284;SDS011;60220;53.552;10.092;2023-10-31T00:18:58;3.42;;;2.70;;
72284;SDS011;60220;53.552;10.092;2023-10-31T00:21:24;6.05;;;3.15;;
72284;SDS011;60220;53.552;10.092;2023-10-31T00:23:53;4.57;;;2.72;;
72284;SDS011;60220;53.552;10.092;2023-10-31T00:26:20;8.60;;;3.60;;
72284;SDS011;60220;53.552;10.092;2023-10-31T00:28:47;6.15;;;3.25;;
72284;SDS011;60220;53.552;10.092;2023-10-31T00:31:13;4.55;;;2.88;;
72284;SDS011;60220;53.552;10.092;2023-10-31T00:33:40;7.32;;;3.83;;
72284;SDS011;60220;53.552;10.092;2023-10-31T00:36:08;6.00;;;3.50;;
72284;SDS011;60220;53.552;10.092;2023-10-31T00:38:35;7.60;;;3.50;;
72284;SDS011;60220;53.552;10.092;2023-10-31T00:41:02;3.55;;;2.63;;
72284;SDS011;60220;53.552;10.092;2023-10-31T00:43:29;3.95;;;2.70;;
72284;SDS011;60220;53.552;10.092;2023-10-31T00:45:56;5.40;;;2.75;;
72284;SDS011;60220;53.552;10.092;2023-10-31T00:48:22;5.78;;;2.92;;
72284;SDS011;60220;53.552;10.092;2023-10-31T00:50:51;4.80;;;3.10;;
72284;SDS011;60220;53.552;10.092;2023-10-31T00:53:21;4.40;;;3.13;;
72284;SDS011;60220;53.552;10.092;2023-10-31T00:55:48;6.97;;;3.20;;
72284;SDS011;60220;53.552;10.092;2023-10-31T00:58:15;4.63;;;3.13;;
72284;SDS011;60220;53.552;10.092;2023-10-31T01:00:41;4.18;;;2.40;;
72284;SDS011;60220;53.552;10.092;2023-10-31T01:03:10;4.97;;;2.33;;
72284;SDS011;60220;53.552;10.092;2023-10-31T01:05:37;9.25;;;3.10;;
72284;SDS011;60220;53.552;10.092;2023-10-31T01:08:06;6.55;;;3.20;;
72284;SDS011;60220;53.552;10.092;2023-10-31T01:10:34;4.68;;;2.53;;
72284;SDS011;60220;53.552;10.092;2023-10-31T01:13:00;5.90;;;2.92;;
72284;SDS011;60220;53.552;10.092;2023-10-31T01:15:27;4.13;;;2.97;;
72284;SDS011;60220;53.552;10.092;2023-10-31T01:17:56;10.23;;;2.90;;
72284;SDS011;60220;53.552;10.092;2023-10-31T01:20:23;4.88;;;2.92;;
72284;SDS011;60220;53.552;10.092;2023-10-31T01:22:49;4.22;;;2.97;;
72284;SDS011;60220;53.552;10.092;2023-10-31T01:25:16;5.55;;;3.22;;
72284;SDS011;60220;53.552;10.092;2023-10-31T01:27:46;4.55;;;2.90;;
72284;SDS011;60220;53.552;10.092;2023-10-31T01:30:13;5.28;;;3.35;;
72284;SDS011;60220;53.552;10.092;2023-10-31T01:32:39;7.28;;;4.00;;
72284;SDS011;60220;53.552;10.092;2023-10-31T01:35:06;7.50;;;3.80;;
72284;SDS011;60220;53.552;10.092;2023-10-31T01:37:34;5.72;;;3.75;;
72284;SDS011;60220;53.552;10.092;2023-10-31T01:40:00;5.70;;;3.42;;
72284;SDS011;60220;53.552;10.092;2023-10-31T01:42:27;5.95;;;3.85;;
72284;SDS011;60220;53.552;10.092;2023-10-31T01:44:55;8.00;;;3.88;;
72284;SDS011;60220;53.552;10.092;2023-10-31T01:47:22;8.98;;;3.95;;
72284;SDS011;60220;53.552;10.092;2023-10-31T01:49:49;7.70;;;3.60;;
72284;SDS011;60220;53.552;10.092;2023-10-31T01:52:19;12.55;;;4.57;;
72284;SDS011;60220;53.552;10.092;2023-10-31T01:54:45;6.65;;;4.40;;
72284;SDS011;60220;53.552;10.092;2023-10-31T01:57:12;8.13;;;5.38;;
72284;SDS011;60220;53.552;10.092;2023-10-31T01:59:41;6.72;;;4.55;;
72284;SDS011;60220;53.552;10.092;2023-10-31T02:02:09;7.80;;;5.03;;
72284;SDS011;60220;53.552;10.092;2023-10-31T02:04:38;9.00;;;6.00;;
72284;SDS011;60220;53.552;10.092;2023-10-31T02:07:06;13.35;;;5.38;;
72284;SDS011;60220;53.552;10.092;2023-10-31T02:09:32;9.32;;;5.35;;
72284;SDS011;60220;53.552;10.092;2023-10-31T02:11:59;9.02;;;5.38;;
72284;SDS011;60220;53.552;10.092;2023-10-31T02:14:25;13.20;;;5.53;;
72284;SDS011;60220;53.552;10.092;2023-10-31T02:16:54;8.55;;;5.25;;
72284;SDS011;60220;53.552;10.092;2023-10-31T02:19:22;7.30;;;5.03;;
72284;SDS011;60220;53.552;10.092;2023-10-31T02:21:50;13.13;;;5.50;;
72284;SDS011;60220;53.552;10.092;2023-10-31T02:24:19;10.80;;;5.43;;
72284;SDS011;60220;53.552;10.092;2023-10-31T02:26:46;9.50;;;5.30;;
72284;SDS011;60220;53.552;10.092;2023-10-31T02:29:12;7.57;;;5.10;;
72284;SDS011;60220;53.552;10.092;2023-10-31T02:31:39;9.57;;;5.03;;
72284;SDS011;60220;53.552;10.092;2023-10-31T02:34:06;8.43;;;5.10;;
72284;SDS011;60220;53.552;10.092;2023-10-31T02:36:35;11.90;;;5.30;;
72284;SDS011;60220;53.552;10.092;2023-10-31T02:39:03;7.97;;;3.90;;
72284;SDS011;60220;53.552;10.092;2023-10-31T02:41:30;8.63;;;4.97;;
72284;SDS011;60220;53.552;10.092;2023-10-31T02:43:56;9.57;;;4.60;;
72284;SDS011;60220;53.552;10.092;2023-10-31T02:46:23;10.02;;;4.88;;
72284;SDS011;60220;53.552;10.092;2023-10-31T02:48:49;10.73;;;5.07;;
72284;SDS011;60220;53.552;10.092;2023-10-31T02:51:19;10.38;;;4.82;;
72284;SDS011;60220;53.552;10.092;2023-10-31T02:53:45;9.43;;;4.97;;
72284;SDS011;60220;53.552;10.092;2023-10-31T02:56:13;11.43;;;5.00;;
72284;SDS011;60220;53.552;10.092;2023-10-31T02:58:40;6.72;;;4.88;;
72284;SDS011;60220;53.552;10.092;2023-10-31T03:01:07;8.48;;;5.53;;
72284;SDS011;60220;53.552;10.092;2023-10-31T03:03:33;8.00;;;4.47;;
72284;SDS011;60220;53.552;10.092;2023-10-31T03:06:00;9.73;;;4.90;;
72284;SDS011;60220;53.552;10.092;2023-10-31T03:08:26;9.10;;;4.85;;
72284;SDS011;60220;53.552;10.092;2023-10-31T03:10:53;9.13;;;4.93;;
72284;SDS011;60220;53.552;10.092;2023-10-31T03:13:21;7.47;;;4.50;;
72284;SDS011;60220;53.552;10.092;2023-10-31T03:15:51;12.15;;;5.18;;
72284;SDS011;60220;53.552;10.092;2023-10-31T03:18:17;8.77;;;4.93;;
72284;SDS011;60220;53.552;10.092;2023-10-31T03:20:44;8.75;;;5.03;;
72284;SDS011;60220;53.552;10.092;2023-10-31T03:23:14;9.18;;;5.07;;
72284;SDS011;60220;53.552;10.092;2023-10-31T03:25:43;7.20;;;4.95;;
72284;SDS011;60220;53.552;10.092;2023-10-31T03:28:18;10.15;;;4.97;;
72284;SDS011;60220;53.552;10.092;2023-10-31T03:30:49;7.05;;;4.95;;
72284;SDS011;60220;53.552;10.092;2023-10-31T03:33:16;8.65;;;5.55;;
72284;SDS011;60220;53.552;10.092;2023-10-31T03:35:43;8.90;;;5.15;;
72284;SDS011;60220;53.552;10.092;2023-10-31T03:38:10;8.82;;;5.22;;
72284;SDS011;60220;53.552;10.092;2023-10-31T03:40:39;8.35;;;4.78;;
72284;SDS011;60220;53.552;10.092;2023-10-31T03:43:06;8.93;;;4.97;;
72284;SDS011;60220;53.552;10.092;2023-10-31T03:45:33;9.88;;;5.45;;
72284;SDS011;60220;53.552;10.092;2023-10-31T03:48:04;11.35;;;5.60;;
72284;SDS011;60220;53.552;10.092;2023-10-31T03:50:30;12.93;;;5.82;;
72284;SDS011;60220;53.552;10.092;2023-10-31T03:52:57;8.95;;;5.47;;
72284;SDS011;60220;53.552;10.092;2023-10-31T03:55:26;8.25;;;5.22;;
72284;SDS011;60220;53.552;10.092;2023-10-31T03:57:52;9.85;;;4.95;;
72284;SDS011;60220;53.552;10.092;2023-10-31T04:00:21;13.00;;;5.53;;
72284;SDS011;60220;53.552;10.092;2023-10-31T04:02:48;11.07;;;5.22;;
72284;SDS011;60220;53.552;10.092;2023-10-31T04:05:16;11.85;;;5.80;;
72284;SDS011;60220;53.552;10.092;2023-10-31T04:07:46;10.98;;;5.82;;
72284;SDS011;60220;53.552;10.092;2023-10-31T04:10:13;11.35;;;5.40;;
72284;SDS011;60220;53.552;10.092;2023-10-31T04:12:39;13.75;;;5.68;;
72284;SDS011;60220;53.552;10.092;2023-10-31T04:15:07;12.43;;;5.22;;
72284;SDS011;60220;53.552;10.092;2023-10-31T04:17:34;10.27;;;5.53;;
72284;SDS011;60220;53.552;10.092;2023-10-31T04:20:01;11.98;;;5.70;;
72284;SDS011;60220;53.552;10.092;2023-10-31T04:22:30;12.00;;;4.70;;
72284;SDS011;60220;53.552;10.092;2023-10-31T04:24:59;8.63;;;4.95;;
72284;SDS011;60220;53.552;10.092;2023-10-31T04:27:25;9.98;;;5.25;;
72284;SDS011;60220;53.552;10.092;2023-10-31T04:29:52;9.65;;;5.60;;
72284;SDS011;60220;53.552;10.092;2023-10-31T04:32:19;7.72;;;4.80;;
72284;SDS011;60220;53.552;10.092;2023-10-31T04:34:45;11.15;;;4.78;;
72284;SDS011;60220;53.552;10.092;2023-10-31T04:37:14;9.25;;;5.05;;
72284;SDS011;60220;53.552;10.092;2023-10-31T04:39:42;7.78;;;4.93;;
72284;SDS011;60220;53.552;10.092;2023-10-31T04:42:09;9.82;;;5.25;;
72284;SDS011;60220;53.552;10.092;2023-10-31T04:44:38;8.63;;;5.28;;
72284;SDS011;60220;53.552;10.092;2023-10-31T04:47:04;10.98;;;5.22;;
72284;SDS011;60220;53.552;10.092;2023-10-31T04:49:34;12.35;;;5.22;;
72284;SDS011;60220;53.552;10.092;2023-10-31T04:52:01;9.48;;;5.35;;
72284;SDS011;60220;53.552;10.092;2023-10-31T04:54:27;10.73;;;4.97;;
72284;SDS011;60220;53.552;10.092;2023-10-31T04:56:55;10.60;;;4.93;;
72284;SDS011;60220;53.552;10.092;2023-10-31T04:59:22;10.05;;;5.25;;
72284;SDS011;60220;53.552;10.092;2023-10-31T05:01:49;14.15;;;4.97;;
72284;SDS011;60220;53.552;10.092;2023-10-31T05:04:18;10.35;;;6.90;;
72284;SDS011;60220;53.552;10.092;2023-10-31T05:06:47;8.65;;;5.28;;
72284;SDS011;60220;53.552;10.092;2023-10-31T05:09:14;6.78;;;4.53;;
72284;SDS011;60220;53.552;10.092;2023-10-31T05:11:40;10.13;;;5.40;;
72284;SDS011;60220;53.552;10.092;2023-10-31T05:14:09;10.23;;;5.22;;
72284;SDS011;60220;53.552;10.092;2023-10-31T05:16:39;13.10;;;5.10;;
72284;SDS011;60220;53.552;10.092;2023-10-31T05:19:09;11.55;;;4.95;;
72284;SDS011;60220;53.552;10.092;2023-10-31T05:21:38;7.57;;;4.57;;
72284;SDS011;60220;53.552;10.092;2023-10-31T05:24:08;9.30;;;4.30;;
72284;SDS011;60220;53.552;10.092;2023-10-31T05:26:38;8.52;;;4.78;;
72284;SDS011;60220;53.552;10.092;2023-10-31T05:29:06;9.95;;;4.72;;
72284;SDS011;60220;53.552;10.092;2023-10-31T05:31:36;9.00;;;5.13;;
72284;SDS011;60220;53.552;10.092;2023-10-31T05:34:03;9.35;;;4.93;;
72284;SDS011;60220;53.552;10.092;2023-10-31T05:36:32;11.60;;;5.28;;
72284;SDS011;60220;53.552;10.092;2023-10-31T05:39:01;17.95;;;8.88;;
72284;SDS011;60220;53.552;10.092;2023-10-31T05:41:30;13.57;;;5.32;;
72284;SDS011;60220;53.552;10.092;2023-10-31T05:43:57;10.80;;;5.68;;
72284;SDS011;60220;53.552;10.092;2023-10-31T05:46:23;11.60;;;5.78;;
72284;SDS011;60220;53.552;10.092;2023-10-31T05:48:53;11.35;;;5.65;;
72284;SDS011;60220;53.552;10.092;2023-10-31T05:51:19;11.52;;;6.13;;
72284;SDS011;60220;53.552;10.092;2023-10-31T05:53:48;14.55;;;6.15;;
72284;SDS011;60220;53.552;10.092;2023-10-31T05:56:15;12.35;;;6.78;;
72284;SDS011;60220;53.552;10.092;2023-10-31T05:58:44;13.95;;;6.43;;
72284;SDS011;60220;53.552;10.092;2023-10-31T06:01:11;16.17;;;6.60;;
72284;SDS011;60220;53.552;10.092;2023-10-31T06:03:38;12.80;;;6.95;;
72284;SDS011;60220;53.552;10.092;2023-10-31T06:06:09;13.27;;;7.32;;
72284;SDS011;60220;53.552;10.092;2023-10-31T06:08:36;15.88;;;7.15;;
72284;SDS011;60220;53.552;10.092;2023-10-31T06:11:03;13.20;;;7.47;;
72284;SDS011;60220;53.552;10.092;2023-10-31T06:13:30;16.27;;;7.70;;
72284;SDS011;60220;53.552;10.092;2023-10-31T06:15:56;11.00;;;6.63;;
72284;SDS011;60220;53.552;10.092;2023-10-31T06:18:24;17.58;;;8.98;;
72284;SDS011;60220;53.552;10.092;2023-10-31T06:20:50;11.95;;;6.80;;
72284;SDS011;60220;53.552;10.092;2023-10-31T06:23:18;14.20;;;7.03;;
72284;SDS011;60220;53.552;10.092;2023-10-31T06:25:45;12.52;;;6.70;;
72284;SDS011;60220;53.552;10.092;2023-10-31T06:28:15;18.02;;;9.70;;
72284;SDS011;60220;53.552;10.092;2023-10-31T06:30:42;16.17;;;6.75;;
72284;SDS011;60220;53.552;10.092;2023-10-31T06:33:08;15.30;;;7.15;;
72284;SDS011;60220;53.552;10.092;2023-10-31T06:35:35;13.70;;;6.53;;
72284;SDS011;60220;53.552;10.092;2023-10-31T06:38:02;10.15;;;5.95;;
72284;SDS011;60220;53.552;10.092;2023-10-31T06:40:30;16.00;;;6.93;;
72284;SDS011;60220;53.552;10.092;2023-10-31T06:42:58;12.77;;;6.28;;
72284;SDS011;60220;53.552;10.092;2023-10-31T06:45:27;11.73;;;6.80;;
72284;SDS011;60220;53.552;10.092;2023-10-31T06:47:54;9.73;;;5.47;;
72284;SDS011;60220;53.552;10.092;2023-10-31T06:50:21;8.98;;;4.80;;
72284;SDS011;60220;53.552;10.092;2023-10-31T06:52:48;8.38;;;4.30;;
72284;SDS011;60220;53.552;10.092;2023-10-31T06:55:14;6.50;;;3.35;;
72284;SDS011;60220;53.552;10.092;2023-10-31T06:57:42;6.60;;;3.33;;
72284;SDS011;60220;53.552;10.092;2023-10-31T07:00:12;6.22;;;3.90;;
72284;SDS011;60220;53.552;10.092;2023-10-31T07:02:39;6.25;;;3.35;;
72284;SDS011;60220;53.552;10.092;2023-10-31T07:05:06;8.27;;;4.13;;
72284;SDS011;60220;53.552;10.092;2023-10-31T07:07:33;6.93;;;3.65;;
72284;SDS011;60220;53.552;10.092;2023-10-31T07:09:59;4.55;;;2.88;;
72284;SDS011;60220;53.552;10.092;2023-10-31T07:12:26;4.28;;;2.42;;
72284;SDS011;60220;53.552;10.092;2023-10-31T07:14:55;5.50;;;2.58;;
72284;SDS011;60220;53.552;10.092;2023-10-31T07:17:25;4.53;;;2.63;;
72284;SDS011;60220;53.552;10.092;2023-10-31T07:19:52;3.22;;;1.55;;
72284;SDS011;60220;53.552;10.092;2023-10-31T07:22:19;4.75;;;2.53;;
72284;SDS011;60220;53.552;10.092;2023-10-31T07:24:47;6.28;;;3.40;;
72284;SDS011;60220;53.552;10.092;2023-10-31T07:27:16;9.38;;;4.40;;
72284;SDS011;60220;53.552;10.092;2023-10-31T07:29:45;8.40;;;5.05;;
72284;SDS011;60220;53.552;10.092;2023-10-31T07:32:14;12.25;;;6.10;;
72284;SDS011;60220;53.552;10.092;2023-10-31T07:34:43;13.52;;;6.30;;
72284;SDS011;60220;53.552;10.092;2023-10-31T07:37:09;14.63;;;6.75;;
72284;SDS011;60220;53.552;10.092;2023-10-31T07:39:38;12.70;;;6.68;;
72284;SDS011;60220;53.552;10.092;2023-10-31T07:42:05;17.25;;;8.80;;
72284;SDS011;60220;53.552;10.092;2023-10-31T07:44:34;17.85;;;9.00;;
72284;SDS011;60220;53.552;10.092;2023-10-31T07:47:01;18.83;;;8.20;;
72284;SDS011;60220;53.552;10.092;2023-10-31T07:49:29;21.27;;;8.73;;
72284;SDS011;60220;53.552;10.092;2023-10-31T07:51:55;19.20;;;8.90;;
72284;SDS011;60220;53.552;10.092;2023-10-31T07:54:22;17.17;;;8.20;;
72284;SDS011;60220;53.552;10.092;2023-10-31T07:56:51;15.02;;;7.68;;
72284;SDS011;60220;53.552;10.092;2023-10-31T07:59:18;15.73;;;7.53;;
72284;SDS011;60220;53.552;10.092;2023-10-31T08:01:44;12.32;;;6.85;;
72284;SDS011;60220;53.552;10.092;2023-10-31T08:04:13;9.38;;;4.43;;
72284;SDS011;60220;53.552;10.092;2023-10-31T08:06:43;6.55;;;2.67;;
72284;SDS011;60220;53.552;10.092;2023-10-31T08:09:10;3.95;;;2.47;;
72284;SDS011;60220;53.552;10.092;2023-10-31T08:11:37;2.22;;;1.15;;
72284;SDS011;60220;53.552;10.092;2023-10-31T08:14:03;5.47;;;1.80;;
72284;SDS011;60220;53.552;10.092;2023-10-31T08:16:30;6.53;;;3.92;;
72284;SDS011;60220;53.552;10.092;2023-10-31T08:18:59;2.13;;;1.30;;
72284;SDS011;60220;53.552;10.092;2023-10-31T08:21:27;1.25;;;0.80;;
72284;SDS011;60220;53.552;10.092;2023-10-31T08:24:02;6.60;;;0.80;;
72284;SDS011;60220;53.552;10.092;2023-10-31T08:26:29;2.83;;;1.20;;
72284;SDS011;60220;53.552;10.092;2023-10-31T08:28:56;0.93;;;0.63;;
72284;SDS011;60220;53.552;10.092;2023-10-31T08:31:23;0.70;;;0.60;;
72284;SDS011;60220;53.552;10.092;2023-10-31T08:33:50;0.88;;;0.70;;
72284;SDS011;60220;53.552;10.092;2023-10-31T08:36:16;2.70;;;1.30;;
72284;SDS011;60220;53.552;10.092;2023-10-31T08:38:43;0.70;;;0.40;;
72284;SDS011;60220;53.552;10.092;2023-10-31T08:41:11;1.25;;;0.57;;
72284;SDS011;60220;53.552;10.092;2023-10-31T08:43:43;0.70;;;0.45;;
72284;SDS011;60220;53.552;10.092;2023-10-31T08:46:10;0.95;;;0.75;;
72284;SDS011;60220;53.552;10.092;2023-10-31T08:48:39;0.82;;;0.50;;
72284;SDS011;60220;53.552;10.092;2023-10-31T08:51:06;1.65;;;1.02;;
72284;SDS011;60220;53.552;10.092;2023-10-31T08:53:33;0.55;;;0.55;;
72284;SDS011;60220;53.552;10.092;2023-10-31T08:55:59;4.13;;;1.38;;
72284;SDS011;60220;53.552;10.092;2023-10-31T08:58:27;0.90;;;0.77;;
72284;SDS011;60220;53.552;10.092;2023-10-31T09:00:54;1.50;;;1.00;;
72284;SDS011;60220;53.552;10.092;2023-10-31T09:03:21;4.43;;;2.63;;
72284;SDS011;60220;53.552;10.092;2023-10-31T09:05:48;1.98;;;1.40;;
72284;SDS011;60220;53.552;10.092;2023-10-31T09:08:14;2.17;;;1.10;;
72284;SDS011;60220;53.552;10.092;2023-10-31T09:10:41;2.47;;;1.20;;
72284;SDS011;60220;53.552;10.092;2023-10-31T09:13:14;2.20;;;0.80;;
72284;SDS011;60220;53.552;10.092;2023-10-31T09:15:42;1.02;;;0.70;;
72284;SDS011;60220;53.552;10.092;2023-10-31T09:18:09;1.20;;;0.73;;
72284;SDS011;60220;53.552;10.092;2023-10-31T09:20:36;1.45;;;0.75;;
72284;SDS011;60220;53.552;10.092;2023-10-31T09:23:03;1.63;;;0.80;;
72284;SDS011;60220;53.552;10.092;2023-10-31T09:25:30;0.90;;;0.50;;
72284;SDS011;60220;53.552;10.092;2023-10-31T09:27:59;0.98;;;0.63;;
72284;SDS011;60220;53.552;10.092;2023-10-31T09:30:26;0.40;;;0.40;;
72284;SDS011;60220;53.552;10.092;2023-10-31T09:32:54;0.50;;;0.43;;
72284;SDS011;60220;53.552;10.092;2023-10-31T09:35:20;0.45;;;0.40;;
72284;SDS011;60220;53.552;10.092;2023-10-31T09:37:47;0.75;;;0.40;;
72284;SDS011;60220;53.552;10.092;2023-10-31T09:40:14;0.38;;;0.30;;
72284;SDS011;60220;53.552;10.092;2023-10-31T09:42:41;1.40;;;0.50;;
72284;SDS011;60220;53.552;10.092;2023-10-31T09:45:08;1.65;;;0.40;;
72284;SDS011;60220;53.552;10.092;2023-10-31T09:47:35;0.35;;;0.35;;
72284;SDS011;60220;53.552;10.092;2023-10-31T09:50:04;1.05;;;0.50;;
72284;SDS011;60220;53.552;10.092;2023-10-31T09:52:32;0.40;;;0.40;;
72284;SDS011;60220;53.552;10.092;2023-10-31T09:55:00;1.58;;;0.90;;
72284;SDS011;60220;53.552;10.092;2023-10-31T10:00:18;0.70;;;0.60;;
72284;SDS011;60220;53.552;10.092;2023-10-31T10:02:45;1.75;;;0.80;;
72284;SDS011;60220;53.552;10.092;2023-10-31T10:05:13;0.75;;;0.50;;
72284;SDS011;60220;53.552;10.092;2023-10-31T10:07:43;0.65;;;0.50;;
72284;SDS011;60220;53.552;10.092;2023-10-31T10:10:13;0.65;;;0.30;;
72284;SDS011;60220;53.552;10.092;2023-10-31T10:12:41;3.50;;;0.40;;
72284;SDS011;60220;53.552;10.092;2023-10-31T10:15:08;0.20;;;0.20;;
72284;SDS011;60220;53.552;10.092;2023-10-31T10:17:41;0.73;;;0.52;;
72284;SDS011;60220;53.552;10.092;2023-10-31T10:20:16;0.30;;;0.20;;
72284;SDS011;60220;53.552;10.092;2023-10-31T10:22:44;0.25;;;0.20;;
72284;SDS011;60220;53.552;10.092;2023-10-31T10:25:11;1.15;;;0.75;;
72284;SDS011;60220;53.552;10.092;2023-10-31T10:27:43;0.85;;;0.40;;
72284;SDS011;60220;53.552;10.092;2023-10-31T10:30:13;1.10;;;0.50;;
72284;SDS011;60220;53.552;10.092;2023-10-31T10:32:42;0.70;;;0.60;;
72284;SDS011;60220;53.552;10.092;2023-10-31T10:35:11;0.43;;;0.40;;
72284;SDS011;60220;53.552;10.092;2023-10-31T10:37:46;1.17;;;0.80;;
72284;SDS011;60220;53.552;10.092;2023-10-31T10:40:17;1.33;;;0.80;;
72284;SDS011;60220;53.552;10.092;2023-10-31T10:42:47;0.82;;;0.82;;
72284;SDS011;60220;53.552;10.092;2023-10-31T10:45:22;1.02;;;0.70;;
72284;SDS011;60220;53.552;10.092;2023-10-31T10:47:50;2.55;;;1.15;;
72284;SDS011;60220;53.552;10.092;2023-10-31T10:50:20;3.45;;;0.90;;
72284;SDS011;60220;53.552;10.092;2023-10-31T10:52:57;3.15;;;1.10;;
72284;SDS011;60220;53.552;10.092;2023-10-31T10:55:32;3.50;;;1.17;;
72284;SDS011;60220;53.552;10.092;2023-10-31T10:58:08;5.13;;;1.90;;
72284;SDS011;60220;53.552;10.092;2023-10-31T11:00:38;3.88;;;1.45;;
72284;SDS011;60220;53.552;10.092;2023-10-31T11:03:06;2.65;;;1.20;;
72284;SDS011;60220;53.552;10.092;2023-10-31T11:05:35;2.22;;;1.10;;
72284;SDS011;60220;53.552;10.092;2023-10-31T11:08:05;3.22;;;1.23;;
72284;SDS011;60220;53.552;10.092;2023-10-31T11:10:32;3.00;;;1.15;;
72284;SDS011;60220;53.552;10.092;2023-10-31T11:13:02;1.80;;;0.98;;
72284;SDS011;60220;53.552;10.092;2023-10-31T11:15:29;1.70;;;0.90;;
72284;SDS011;60220;53.552;10.092;2023-10-31T11:17:56;3.40;;;1.30;;
72284;SDS011;60220;53.552;10.092;2023-10-31T11:20:24;2.95;;;0.88;;
72284;SDS011;60220;53.552;10.092;2023-10-31T11:22:54;1.08;;;0.90;;
72284;SDS011;60220;53.552;10.092;2023-10-31T11:25:24;2.83;;;1.00;;
72284;SDS011;60220;53.552;10.092;2023-10-31T11:27:51;0.95;;;0.85;;
72284;SDS011;60220;53.552;10.092;2023-10-31T11:30:21;2.70;;;1.50;;
72284;SDS011;60220;53.552;10.092;2023-10-31T11:32:53;2.17;;;1.23;;
72284;SDS011;60220;53.552;10.092;2023-10-31T11:35:21;2.60;;;1.00;;
72284;SDS011;60220;53.552;10.092;2023-10-31T11:37:48;2.03;;;1.15;;
72284;SDS011;60220;53.552;10.092;2023-10-31T11:40:16;1.60;;;1.00;;
72284;SDS011;60220;53.552;10.092;2023-10-31T11:42:49;3.65;;;1.23;;
72284;SDS011;60220;53.552;10.092;2023-10-31T11:45:29;1.23;;;1.00;;
72284;SDS011;60220;53.552;10.092;2023-10-31T11:47:59;4.55;;;1.20;;
72284;SDS011;60220;53.552;10.092;2023-10-31T11:50:25;3.10;;;1.42;;
72284;SDS011;60220;53.552;10.092;2023-10-31T11:52:59;1.42;;;1.02;;
72284;SDS011;60220;53.552;10.092;2023-10-31T11:55:27;7.90;;;1.42;;
72284;SDS011;60220;53.552;10.092;2023-10-31T11:57:58;2.83;;;0.93;;
72284;SDS011;60220;53.552;10.092;2023-10-31T12:00:25;4.85;;;1.50;;
72284;SDS011;60220;53.552;10.092;2023-10-31T12:02:58;3.25;;;1.60;;
72284;SDS011;60220;53.552;10.092;2023-10-31T12:05:25;2.92;;;1.40;;
72284;SDS011;60220;53.552;10.092;2023-10-31T12:07:52;2.38;;;1.58;;
72284;SDS011;60220;53.552;10.092;2023-10-31T12:10:23;2.35;;;1.60;;
72284;SDS011;60220;53.552;10.092;2023-10-31T12:12:50;3.67;;;2.08;;
72284;SDS011;60220;53.552;10.092;2023-10-31T12:15:19;4.03;;;2.00;;
72284;SDS011;60220;53.552;10.092;2023-10-31T12:17:48;3.15;;;1.30;;
72284;SDS011;60220;53.552;10.092;2023-10-31T12:20:15;1.77;;;1.02;;
72284;SDS011;60220;53.552;10.092;2023-10-31T12:22:44;2.80;;;1.20;;
72284;SDS011;60220;53.552;10.092;2023-10-31T12:25:11;3.90;;;1.20;;
72284;SDS011;60220;53.552;10.092;2023-10-31T12:27:44;5.93;;;1.23;;
72284;SDS011;60220;53.552;10.092;2023-10-31T12:30:16;1.55;;;0.70;;
72284;SDS011;60220;53.552;10.092;2023-10-31T12:32:52;1.73;;;0.70;;
72284;SDS011;60220;53.552;10.092;2023-10-31T12:35:21;0.40;;;0.40;;
72284;SDS011;60220;53.552;10.092;2023-10-31T12:37:49;2.45;;;0.40;;
72284;SDS011;60220;53.552;10.092;2023-10-31T12:40:17;1.00;;;0.60;;
72284;SDS011;60220;53.552;10.092;2023-10-31T12:42:45;1.95;;;0.70;;
72284;SDS011;60220;53.552;10.092;2023-10-31T12:45:12;1.58;;;0.80;;
72284;SDS011;60220;53.552;10.092;2023-10-31T12:47:41;6.53;;;1.48;;
72284;SDS011;60220;53.552;10.092;2023-10-31T12:50:08;2.97;;;1.52;;
72284;SDS011;60220;53.552;10.092;2023-10-31T12:52:45;4.57;;;1.85;;
72284;SDS011;60220;53.552;10.092;2023-10-31T12:55:16;1.85;;;1.00;;
72284;SDS011;60220;53.552;10.092;2023-10-31T12:57:45;1.48;;;0.90;;
72284;SDS011;60220;53.552;10.092;2023-10-31T13:00:13;1.75;;;0.98;;
72284;SDS011;60220;53.552;10.092;2023-10-31T13:02:43;1.95;;;1.08;;
72284;SDS011;60220;53.552;10.092;2023-10-31T13:05:10;2.28;;;1.17;;
72284;SDS011;60220;53.552;10.092;2023-10-31T13:07:38;1.67;;;0.55;;
72284;SDS011;60220;53.552;10.092;2023-10-31T13:10:06;1.30;;;0.95;;
72284;SDS011;60220;53.552;10.092;2023-10-31T13:12:34;1.02;;;0.90;;
72284;SDS011;60220;53.552;10.092;2023-10-31T13:15:02;1.48;;;0.60;;
72284;SDS011;60220;53.552;10.092;2023-10-31T13:17:29;4.53;;;1.70;;
72284;SDS011;60220;53.552;10.092;2023-10-31T13:19:58;6.30;;;2.10;;
72284;SDS011;60220;53.552;10.092;2023-10-31T13:22:25;1.42;;;0.88;;
72284;SDS011;60220;53.552;10.092;2023-10-31T13:24:54;2.95;;;1.63;;
72284;SDS011;60220;53.552;10.092;2023-10-31T13:27:21;3.25;;;1.67;;
72284;SDS011;60220;53.552;10.092;2023-10-31T13:29:47;3.90;;;1.55;;
72284;SDS011;60220;53.552;10.092;2023-10-31T13:32:15;4.53;;;2.35;;
72284;SDS011;60220;53.552;10.092;2023-10-31T13:34:42;2.20;;;1.20;;
72284;SDS011;60220;53.552;10.092;2023-10-31T13:37:12;1.60;;;0.70;;
72284;SDS011;60220;53.552;10.092;2023-10-31T13:39:39;2.30;;;0.70;;
72284;SDS011;60220;53.552;10.092;2023-10-31T13:42:06;1.83;;;0.55;;
72284;SDS011;60220;53.552;10.092;2023-10-31T13:44:35;3.05;;;0.73;;
72284;SDS011;60220;53.552;10.092;2023-10-31T13:47:05;1.10;;;0.65;;
72284;SDS011;60220;53.552;10.092;2023-10-31T13:49:31;2.20;;;0.88;;
72284;SDS011;60220;53.552;10.092;2023-10-31T13:51:58;1.63;;;0.60;;
72284;SDS011;60220;53.552;10.092;2023-10-31T13:54:29;2.10;;;1.23;;
72284;SDS011;60220;53.552;10.092;2023-10-31T13:56:55;1.45;;;1.00;;
72284;SDS011;60220;53.552;10.092;2023-10-31T13:59:22;1.63;;;1.00;;
72284;SDS011;60220;53.552;10.092;2023-10-31T14:01:49;1.45;;;0.73;;
72284;SDS011;60220;53.552;10.092;2023-10-31T14:04:15;1.38;;;1.05;;
72284;SDS011;60220;53.552;10.092;2023-10-31T14:06:42;1.77;;;1.00;;
72284;SDS011;60220;53.552;10.092;2023-10-31T14:09:09;3.75;;;1.13;;
72284;SDS011;60220;53.552;10.092;2023-10-31T14:11:39;2.05;;;1.30;;
72284;SDS011;60220;53.552;10.092;2023-10-31T14:14:07;1.92;;;0.98;;
72284;SDS011;60220;53.552;10.092;2023-10-31T14:16:35;2.15;;;1.38;;
72284;SDS011;60220;53.552;10.092;2023-10-31T14:19:03;0.98;;;0.85;;
72284;SDS011;60220;53.552;10.092;2023-10-31T14:21:34;5.13;;;1.23;;
72284;SDS011;60220;53.552;10.092;2023-10-31T14:24:04;1.15;;;0.88;;
72284;SDS011;60220;53.552;10.092;2023-10-31T14:26:33;1.70;;;1.10;;
72284;SDS011;60220;53.552;10.092;2023-10-31T14:29:03;2.17;;;1.60;;
72284;SDS011;60220;53.552;10.092;2023-10-31T14:31:29;2.88;;;1.23;;
72284;SDS011;60220;53.552;10.092;2023-10-31T14:33:56;1.60;;;1.00;;
72284;SDS011;60220;53.552;10.092;2023-10-31T14:36:23;2.35;;;1.02;;
72284;SDS011;60220;53.552;10.092;2023-10-31T14:38:50;1.08;;;0.68;;